Airfield :
LOGIN :

Register | Disclaimer

   EN    FR    IT 

 










Legend :    VFR   Marginal VFR   IFR   Intensive IFR   Very Intensive IFR
Visi :
Ceiling :
>= 8 km
>= 3000ft
5 to 8 km
1000 to 3000 ft
1500m to 5 km
500 to 1000 ft
800 to 1500m
200 to 500 ft
< 800m
< 200 ft
Symbols :   Thunderstorms  Fog  Heavy snow  Heavy precipitations  Wind > 20 kt
SIGMETs :     Misc.  Thunderstorms  Icing  Turbulence  Mountain Waves  Volcanic Ashes







- Airport Elevation : 779 ft
- IATA code : CMF
- Download approach charts


LFLB - Chambery / Aix-Les-Bains

CURRENT METAR :
  • 210100Z AUTO 17002KT 9999 FEW086 OVC150 12/09 Q1020 NOSIG

EXPIRED METARs :
  • 210030Z AUTO 00000KT CAVOK 12/09 Q1020 NOSIG
  • 210000Z AUTO VRB01KT CAVOK 12/09 Q1020 NOSIG
  • 202330Z AUTO 15002KT 9999 FEW082 OVC130 12/09 Q1020 NOSIG
  • 202300Z AUTO VRB03KT 9999 FEW082 BKN130 OVC160 12/10 Q1020
  • 202230Z AUTO 18003KT 130V210 9999 FEW080 BKN130 BKN160 12/09 Q1020
  • 202200Z AUTO 00000KT 9999 BKN082 BKN140 OVC160 13/10 Q1020

TAF TAF LFLB
Valid from the 21 at 00:00 until the 22 at 00:00 UTC


202300Z 2100/2124 18005KT CAVOK
BECMG 2115/2117 VRB15KT SHRA SCT023 SCT030TCU BKN035
BECMG 2117/2119 VRB02KT
No reported NOTAMs for that airfield.



MET'MAP, your aeronautical weather chart ! - Copyright ORBIFLY December 2007 - Disclaimer

ORBIFLY MET'MAP TEAM :

Programming & Development : Alexandra Zaïnal
Concept & Development : Baudouin d'Aumeries
Co-Development & Prog : Marc-Olivier Méhu
Technical & hardware support : Manuel Goepfert

Contact : metmap@orbifly.com




SOURCES & CREDITS :

   NOAA